Time;durP1;ratioP1;P1;durP2;ratioP2;P2;SDS_P1;SDS_P2;PMS_P1;PMS_P2;Temp;Humidity;BMP_temperature;BMP_pressure;BME280_temperature;BME280_humidity;BME280_pressure;Samples;Min_cycle;Max_cycle;Signal;HPM_P1;HPM_P2
2021/09/13 00:01:57;;;;;;;9.57;2.25;;;14.70;99.90;;;;;;4931549;29;20035;-78
2021/09/13 00:04:22;;;;;;;13.07;2.00;;;14.70;99.90;;;;;;4930982;29;20044;-76
2021/09/13 00:06:48;;;;;;;8.60;2.25;;;14.60;99.90;;;;;;4930725;29;20053;-77
2021/09/13 00:09:13;;;;;;;5.43;1.88;;;14.60;99.90;;;;;;4913799;29;20036;-77
2021/09/13 00:11:39;;;;;;;9.82;2.47;;;14.60;99.90;;;;;;4930599;29;20509;-77
2021/09/13 00:14:04;;;;;;;4.78;2.00;;;14.50;99.90;;;;;;4913459;29;20032;-76
2021/09/13 00:16:30;;;;;;;9.88;2.10;;;14.50;99.90;;;;;;4913596;29;20032;-78
2021/09/13 00:18:56;;;;;;;7.78;2.65;;;14.50;99.90;;;;;;4930434;29;20047;-77
2021/09/13 00:21:21;;;;;;;7.63;2.03;;;14.60;99.90;;;;;;4930373;29;20032;-76
2021/09/13 00:23:47;;;;;;;2.65;1.90;;;14.50;99.90;;;;;;4930768;29;20028;-78
2021/09/13 00:26:12;;;;;;;5.65;2.20;;;14.50;99.90;;;;;;4913290;29;20067;-77
2021/09/13 00:28:38;;;;;;;11.48;1.98;;;14.50;99.90;;;;;;4930486;29;20064;-76
2021/09/13 00:31:03;;;;;;;3.00;1.92;;;14.60;99.90;;;;;;4930277;29;20815;-77
2021/09/13 00:33:29;;;;;;;9.07;2.20;;;14.50;99.90;;;;;;4930143;29;20070;-78
2021/09/13 00:35:55;;;;;;;6.32;2.28;;;14.60;99.90;;;;;;4930409;29;20032;-77
2021/09/13 00:38:20;;;;;;;7.20;2.75;;;14.50;99.90;;;;;;4913230;29;20120;-79
2021/09/13 00:40:46;;;;;;;6.90;2.78;;;14.60;99.90;;;;;;4929860;29;20032;-77
2021/09/13 00:43:12;;;;;;;7.68;2.38;;;14.60;99.90;;;;;;4930287;29;20092;-79
2021/09/13 00:45:38;;;;;;;4.70;2.47;;;14.60;99.90;;;;;;4929918;29;20059;-78
2021/09/13 00:48:04;;;;;;;5.40;2.28;;;14.60;99.90;;;;;;4929919;29;20033;-77
2021/09/13 00:50:30;;;;;;;8.45;2.95;;;14.60;99.90;;;;;;4929996;29;20084;-76
2021/09/13 00:52:56;;;;;;;5.38;2.50;;;14.60;99.90;;;;;;4912909;29;20082;-76
2021/09/13 00:55:23;;;;;;;8.18;2.33;;;14.60;99.90;;;;;;4912800;29;20028;-76
2021/09/13 00:57:50;;;;;;;7.82;2.47;;;14.50;99.90;;;;;;4930042;29;20083;-78
2021/09/13 01:00:17;;;;;;;4.80;2.10;;;14.60;99.90;;;;;;4929837;29;20051;-78
2021/09/13 01:02:43;;;;;;;6.13;2.67;;;14.60;99.90;;;;;;4929771;29;20028;-76
2021/09/13 01:05:09;;;;;;;7.30;3.60;;;14.70;99.90;;;;;;4930114;29;20082;-78
2021/09/13 01:07:35;;;;;;;4.85;2.40;;;14.60;99.90;;;;;;4929591;29;20042;-78
2021/09/13 01:10:01;;;;;;;6.57;3.03;;;14.70;99.90;;;;;;4929552;29;20064;-76
2021/09/13 01:12:27;;;;;;;15.20;2.97;;;14.60;99.90;;;;;;4929795;29;20465;-77
2021/09/13 01:14:53;;;;;;;4.15;2.25;;;14.60;99.90;;;;;;4929335;29;20024;-76
2021/09/13 01:17:19;;;;;;;4.82;2.05;;;14.60;99.90;;;;;;4912504;29;20020;-77
2021/09/13 01:19:45;;;;;;;6.68;2.80;;;14.70;99.90;;;;;;4929717;29;20466;-76
2021/09/13 01:22:12;;;;;;;9.02;2.70;;;14.60;99.90;;;;;;4928835;29;20020;-77
2021/09/13 01:24:38;;;;;;;3.47;2.17;;;14.60;99.90;;;;;;4912405;29;20048;-76
2021/09/13 01:27:09;;;;;;;6.38;2.88;;;14.60;99.90;;;;;;4912161;29;20074;-77
2021/09/13 01:29:35;;;;;;;9.02;3.10;;;14.60;99.90;;;;;;4929177;29;20028;-76
2021/09/13 01:32:01;;;;;;;5.03;2.72;;;14.70;99.90;;;;;;4929270;29;20027;-77
2021/09/13 01:34:27;;;;;;;6.10;2.80;;;14.70;99.90;;;;;;4929331;29;20028;-76
2021/09/13 01:36:53;;;;;;;7.25;3.53;;;14.70;99.90;;;;;;4911893;29;20059;-78
2021/09/13 01:39:19;;;;;;;3.13;2.10;;;14.70;99.90;;;;;;4929096;29;20060;-78
2021/09/13 01:41:45;;;;;;;8.23;3.03;;;14.70;99.90;;;;;;4928903;29;20039;-79
2021/09/13 01:44:12;;;;;;;19.23;4.05;;;14.70;99.90;;;;;;4911708;29;20099;-78
2021/09/13 01:46:39;;;;;;;6.88;2.67;;;14.70;99.90;;;;;;4929104;29;20501;-78
2021/09/13 01:49:06;;;;;;;6.30;2.60;;;14.70;99.90;;;;;;4928685;29;20039;-77
2021/09/13 01:51:32;;;;;;;7.22;2.95;;;14.70;99.90;;;;;;4928849;29;20028;-76
2021/09/13 01:53:58;;;;;;;17.55;3.83;;;14.60;99.90;;;;;;4929023;29;20092;-78
2021/09/13 01:56:23;;;;;;;6.45;2.75;;;14.90;99.90;;;;;;4928451;29;20032;-76
2021/09/13 01:58:49;;;;;;;7.93;3.70;;;14.80;99.90;;;;;;4928694;29;20441;-76
2021/09/13 02:01:15;;;;;;;5.95;2.90;;;14.80;99.90;;;;;;4911544;29;20040;-75
2021/09/13 02:03:41;;;;;;;9.60;3.42;;;14.80;99.90;;;;;;4928557;29;20039;-77
2021/09/13 02:06:07;;;;;;;6.40;3.58;;;14.90;99.90;;;;;;4928963;29;20066;-75
2021/09/13 02:08:32;;;;;;;9.68;4.22;;;14.80;99.90;;;;;;4928688;29;20040;-76
2021/09/13 02:10:58;;;;;;;5.20;3.38;;;14.80;99.90;;;;;;4928420;29;20039;-76
2021/09/13 02:13:24;;;;;;;16.08;4.10;;;14.80;99.90;;;;;;4911568;29;20024;-75
2021/09/13 02:15:49;;;;;;;10.13;3.53;;;14.80;99.90;;;;;;4928253;29;20059;-76
2021/09/13 02:18:15;;;;;;;11.60;4.47;;;14.70;99.90;;;;;;4912009;29;20032;-76
2021/09/13 02:20:41;;;;;;;9.27;3.05;;;14.80;99.90;;;;;;4928582;29;20057;-75
2021/09/13 02:23:06;;;;;;;12.43;3.85;;;14.80;99.90;;;;;;4928251;29;20035;-75
2021/09/13 02:25:32;;;;;;;7.20;3.58;;;14.80;99.90;;;;;;4927966;29;20044;-76
2021/09/13 02:27:57;;;;;;;10.90;4.05;;;14.90;99.90;;;;;;4928544;29;20055;-76
2021/09/13 02:30:23;;;;;;;13.20;3.92;;;14.90;99.90;;;;;;4928046;29;20056;-76
2021/09/13 02:32:49;;;;;;;6.50;3.33;;;14.90;99.90;;;;;;4928444;29;20038;-75
2021/09/13 02:35:14;;;;;;;8.23;3.28;;;15.00;99.90;;;;;;4928305;29;20039;-78
2021/09/13 02:37:40;;;;;;;33.70;4.85;;;14.90;99.90;;;;;;4928373;29;20024;-77
2021/09/13 02:40:07;;;;;;;7.78;3.50;;;14.80;99.90;;;;;;4928474;29;20040;-76
2021/09/13 02:42:33;;;;;;;11.20;4.03;;;14.90;99.90;;;;;;4928270;29;20043;-77
2021/09/13 02:44:59;;;;;;;7.80;3.53;;;14.90;99.90;;;;;;4927613;29;20115;-77
2021/09/13 02:47:24;;;;;;;6.35;3.17;;;15.00;99.90;;;;;;4928244;29;20039;-78
2021/09/13 02:49:50;;;;;;;8.48;3.90;;;15.00;99.90;;;;;;4928133;29;20036;-77
2021/09/13 02:52:16;;;;;;;8.32;3.70;;;15.00;99.90;;;;;;4911007;29;20032;-76
2021/09/13 02:54:41;;;;;;;4.90;2.63;;;15.10;99.90;;;;;;4911189;29;20485;-76
2021/09/13 02:57:07;;;;;;;6.35;2.92;;;15.10;99.90;;;;;;4927964;29;20533;-76
2021/09/13 02:59:32;;;;;;;10.00;3.42;;;15.10;99.90;;;;;;4911009;29;20028;-77
2021/09/13 03:01:58;;;;;;;5.65;2.97;;;15.00;99.90;;;;;;4928119;29;20029;-78
2021/09/13 03:04:23;;;;;;;9.43;2.88;;;15.00;99.90;;;;;;4927616;29;20032;-75
2021/09/13 03:06:51;;;;;;;5.22;2.55;;;15.10;99.90;;;;;;4928273;29;20032;-77
2021/09/13 03:09:17;;;;;;;6.97;3.55;;;15.00;99.90;;;;;;4927667;29;20021;-77
2021/09/13 03:11:45;;;;;;;15.18;3.88;;;14.90;99.90;;;;;;4928212;29;20066;-78
2021/09/13 03:14:11;;;;;;;10.90;3.78;;;14.90;99.90;;;;;;4910958;29;20028;-75
2021/09/13 03:16:37;;;;;;;7.40;3.28;;;14.90;99.90;;;;;;4927781;29;20073;-75
2021/09/13 03:19:02;;;;;;;8.65;3.78;;;14.90;99.90;;;;;;4927707;29;20028;-77
2021/09/13 03:21:28;;;;;;;10.77;3.47;;;15.00;99.90;;;;;;4927925;29;20075;-76
2021/09/13 03:23:54;;;;;;;10.00;3.47;;;15.00;99.90;;;;;;4927540;29;20032;-77
2021/09/13 03:26:19;;;;;;;5.95;3.33;;;15.00;99.90;;;;;;4927542;29;20095;-76
2021/09/13 03:28:45;;;;;;;10.95;2.95;;;14.90;99.90;;;;;;4927923;29;20036;-77
2021/09/13 03:31:11;;;;;;;5.78;3.05;;;14.90;99.90;;;;;;4927407;29;20039;-77
2021/09/13 03:33:36;;;;;;;8.63;3.60;;;14.90;99.90;;;;;;4910928;29;20096;-77
2021/09/13 03:36:02;;;;;;;6.65;3.20;;;14.90;99.90;;;;;;4927880;29;20040;-75
2021/09/13 03:38:28;;;;;;;13.95;3.42;;;14.90;99.90;;;;;;4930407;29;20425;-76
2021/09/13 03:40:53;;;;;;;16.27;3.53;;;14.90;99.90;;;;;;4931218;29;20100;-76
2021/09/13 03:43:19;;;;;;;8.35;3.70;;;14.90;99.90;;;;;;4913961;29;20032;-77
2021/09/13 03:45:45;;;;;;;9.25;3.47;;;14.90;99.90;;;;;;4910717;29;20124;-76
2021/09/13 03:48:10;;;;;;;9.13;3.00;;;14.90;99.90;;;;;;4912871;29;20029;-75
2021/09/13 03:50:36;;;;;;;9.90;4.50;;;14.90;99.90;;;;;;4912666;29;20028;-77
2021/09/13 03:53:02;;;;;;;19.83;4.65;;;14.90;99.90;;;;;;4912210;29;20036;-78
2021/09/13 03:55:28;;;;;;;7.30;3.75;;;14.80;99.90;;;;;;4912551;29;20055;-76
2021/09/13 03:57:53;;;;;;;7.50;3.92;;;14.90;99.90;;;;;;4912237;29;20032;-76
2021/09/13 04:00:19;;;;;;;13.48;4.65;;;14.90;99.90;;;;;;4912052;29;20116;-75
2021/09/13 04:02:47;;;;;;;7.93;4.05;;;14.90;99.90;;;;;;4912196;29;20029;-75
2021/09/13 04:05:17;;;;;;;16.05;4.68;;;14.90;99.90;;;;;;4912115;29;20036;-75
2021/09/13 04:12:46;;;;;;;9.52;4.60;;;14.90;99.90;;;;;;4911681;29;20033;-76
2021/09/13 04:15:14;;;;;;;10.65;3.63;;;14.90;99.90;;;;;;4911990;29;20477;-76
2021/09/13 04:17:39;;;;;;;13.32;4.82;;;14.90;99.90;;;;;;4912351;29;20029;-75
2021/09/13 04:20:05;;;;;;;14.18;5.10;;;14.90;99.90;;;;;;4911688;29;20032;-75
2021/09/13 04:22:31;;;;;;;17.42;5.03;;;14.80;99.90;;;;;;4910632;29;20025;-75
2021/09/13 04:24:58;;;;;;;11.00;4.55;;;14.80;99.90;;;;;;4910503;29;20055;-76
2021/09/13 04:27:24;;;;;;;13.23;4.70;;;14.80;99.90;;;;;;4911748;29;20059;-76
2021/09/13 04:29:49;;;;;;;11.68;4.25;;;14.90;99.90;;;;;;4912053;29;20037;-75
2021/09/13 04:32:15;;;;;;;16.13;4.57;;;14.90;99.90;;;;;;4911769;29;20052;-76
2021/09/13 04:34:41;;;;;;;8.77;4.28;;;15.00;99.90;;;;;;4909918;29;20048;-75
2021/09/13 04:37:06;;;;;;;8.38;3.85;;;14.90;99.90;;;;;;4911760;29;20032;-74
2021/09/13 04:39:32;;;;;;;7.22;3.60;;;14.90;99.90;;;;;;4911352;29;20088;-76
2021/09/13 04:41:58;;;;;;;7.07;4.20;;;14.90;99.90;;;;;;4911215;29;20052;-76
2021/09/13 04:44:25;;;;;;;8.38;3.28;;;14.90;99.90;;;;;;4909757;29;20033;-76
2021/09/13 04:46:50;;;;;;;10.60;4.50;;;14.90;99.90;;;;;;4929828;29;20064;-75
2021/09/13 04:49:16;;;;;;;11.15;4.93;;;15.00;99.90;;;;;;4912566;29;20043;-76
2021/09/13 04:51:42;;;;;;;7.72;3.78;;;15.00;99.90;;;;;;4930256;29;20028;-75
2021/09/13 04:54:07;;;;;;;9.00;3.67;;;15.10;99.90;;;;;;4913000;29;20031;-76
2021/09/13 04:56:33;;;;;;;6.53;3.55;;;15.00;99.90;;;;;;4913304;29;20056;-76
2021/09/13 04:58:59;;;;;;;8.10;3.92;;;14.90;99.90;;;;;;4930163;29;20032;-75
2021/09/13 05:01:25;;;;;;;9.95;4.20;;;15.00;99.90;;;;;;4929771;29;20036;-77
2021/09/13 05:03:50;;;;;;;15.05;4.43;;;15.00;99.90;;;;;;4913052;29;20036;-77
2021/09/13 05:06:17;;;;;;;7.55;4.13;;;15.00;99.90;;;;;;4929920;29;20054;-75
2021/09/13 05:08:43;;;;;;;9.50;3.35;;;15.00;99.90;;;;;;4912745;29;20060;-77
2021/09/13 05:11:09;;;;;;;8.65;3.53;;;15.00;99.90;;;;;;4913446;29;20037;-75
2021/09/13 05:13:34;;;;;;;9.98;3.92;;;15.00;99.90;;;;;;4913367;29;20035;-80
2021/09/13 05:16:00;;;;;;;8.57;3.90;;;15.00;99.90;;;;;;4913055;29;20033;-77
2021/09/13 05:18:26;;;;;;;9.63;3.65;;;15.00;99.90;;;;;;4929745;29;20028;-76
2021/09/13 05:20:51;;;;;;;5.55;3.33;;;15.00;99.90;;;;;;4929009;29;20536;-74
2021/09/13 05:23:17;;;;;;;12.13;3.55;;;15.00;99.90;;;;;;4929586;29;20028;-75
2021/09/13 05:25:43;;;;;;;7.55;3.65;;;15.00;99.90;;;;;;4929989;29;20551;-75
2021/09/13 05:28:08;;;;;;;7.30;3.25;;;15.00;99.90;;;;;;4930645;29;20034;-75
2021/09/13 05:30:34;;;;;;;7.03;3.42;;;15.10;99.90;;;;;;4912601;29;20044;-76
2021/09/13 05:33:00;;;;;;;5.97;3.60;;;15.10;99.90;;;;;;4930138;29;20032;-76
2021/09/13 05:35:25;;;;;;;5.82;3.05;;;15.10;99.90;;;;;;4930149;29;20036;-74
2021/09/13 05:37:51;;;;;;;6.75;3.42;;;15.10;99.90;;;;;;4928893;29;20036;-76
2021/09/13 05:40:17;;;;;;;5.30;3.20;;;15.10;99.90;;;;;;4911960;29;20098;-77
2021/09/13 05:42:43;;;;;;;7.47;3.00;;;15.10;99.90;;;;;;4929520;29;20032;-75
2021/09/13 05:45:11;;;;;;;8.07;2.80;;;15.10;99.90;;;;;;4928996;29;20112;-75
2021/09/13 05:47:36;;;;;;;6.80;3.10;;;15.00;99.90;;;;;;4930054;29;20039;-76
2021/09/13 05:50:03;;;;;;;9.60;3.50;;;15.10;99.90;;;;;;4911944;29;20040;-75
2021/09/13 05:52:28;;;;;;;11.40;2.90;;;15.10;99.90;;;;;;4929271;29;20035;-75
2021/09/13 05:54:54;;;;;;;6.30;3.05;;;15.10;99.90;;;;;;4929454;29;20388;-74
2021/09/13 05:57:19;;;;;;;5.68;2.85;;;15.10;99.90;;;;;;4928871;29;20056;-75
2021/09/13 05:59:45;;;;;;;8.00;2.78;;;15.10;99.90;;;;;;4928142;29;20032;-75
2021/09/13 06:02:13;;;;;;;6.25;3.15;;;15.10;99.90;;;;;;4911330;29;20036;-78
2021/09/13 06:04:40;;;;;;;4.25;2.28;;;15.20;99.90;;;;;;4908533;29;20056;-75
2021/09/13 06:07:05;;;;;;;9.35;2.92;;;15.20;99.90;;;;;;4917303;29;20036;-78
2021/09/13 06:09:32;;;;;;;5.95;3.08;;;15.30;99.90;;;;;;4920674;29;20036;-77
2021/09/13 06:11:58;;;;;;;10.88;3.13;;;15.30;99.90;;;;;;4920886;29;20056;-76
2021/09/13 06:14:23;;;;;;;8.20;3.33;;;15.20;99.90;;;;;;4910196;29;20122;-77
2021/09/13 06:16:53;;;;;;;6.97;3.50;;;15.30;99.90;;;;;;4927400;29;20040;-77
2021/09/13 06:19:18;;;;;;;6.03;2.97;;;15.40;99.90;;;;;;4911191;29;20187;-77
2021/09/13 06:21:44;;;;;;;9.35;3.45;;;15.40;99.90;;;;;;4928770;29;20465;-75
2021/09/13 06:24:10;;;;;;;13.05;3.92;;;15.40;99.90;;;;;;4929353;29;20032;-77
2021/09/13 06:26:35;;;;;;;9.32;3.40;;;15.40;99.90;;;;;;4928399;29;20048;-75
2021/09/13 06:29:01;;;;;;;9.82;3.20;;;15.50;99.90;;;;;;4927897;29;20396;-76
2021/09/13 06:31:26;;;;;;;6.93;3.10;;;15.50;99.90;;;;;;4926476;29;20044;-75
2021/09/13 06:33:52;;;;;;;6.40;2.80;;;15.60;99.90;;;;;;4926278;29;20031;-74
2021/09/13 06:36:18;;;;;;;5.60;3.00;;;15.60;99.90;;;;;;4928012;29;20043;-75
2021/09/13 06:38:45;;;;;;;8.40;2.80;;;15.50;99.90;;;;;;4929350;29;20028;-76
2021/09/13 06:41:11;;;;;;;8.55;3.58;;;15.50;99.90;;;;;;4911638;29;20032;-75
2021/09/13 06:43:37;;;;;;;15.40;3.67;;;15.50;99.90;;;;;;4910435;29;20028;-76
2021/09/13 06:49:01;;;;;;;14.00;2.80;;;15.50;99.90;;;;;;4906290;29;20523;-74
2021/09/13 06:51:27;;;;;;;6.57;3.17;;;15.60;99.90;;;;;;4928234;29;20020;-75
2021/09/13 06:53:52;;;;;;;12.88;3.58;;;15.60;99.90;;;;;;4909422;29;20120;-75
2021/09/13 06:56:18;;;;;;;7.78;3.35;;;15.80;99.90;;;;;;4907748;29;20040;-74
2021/09/13 06:58:44;;;;;;;9.40;2.75;;;15.70;99.90;;;;;;4925925;29;20039;-75
2021/09/13 07:01:09;;;;;;;14.90;2.60;;;15.70;99.90;;;;;;4892559;29;20024;-74
2021/09/13 07:03:35;;;;;;;8.00;3.05;;;15.80;99.90;;;;;;4909198;29;20032;-75
2021/09/13 07:06:02;;;;;;;4.88;2.17;;;15.80;99.90;;;;;;4909275;29;20080;-74
2021/09/13 07:08:27;;;;;;;6.18;2.60;;;15.90;99.90;;;;;;4908927;29;20028;-74
2021/09/13 07:10:54;;;;;;;8.88;3.05;;;16.00;99.90;;;;;;4893000;29;20039;-74
2021/09/13 07:13:20;;;;;;;9.30;2.70;;;16.20;99.90;;;;;;4912920;29;20035;-75
2021/09/13 07:15:46;;;;;;;5.95;2.60;;;16.30;99.90;;;;;;4912622;29;20032;-75
2021/09/13 07:18:13;;;;;;;8.93;3.53;;;16.30;99.90;;;;;;4913013;29;20032;-75
2021/09/13 07:20:39;;;;;;;6.88;2.53;;;16.40;99.90;;;;;;4920321;29;20051;-75
2021/09/13 07:23:04;;;;;;;4.03;2.13;;;16.40;99.90;;;;;;4904248;29;20028;-76
2021/09/13 07:25:30;;;;;;;6.55;2.58;;;16.40;99.90;;;;;;4918035;29;20512;-76
2021/09/13 07:27:56;;;;;;;4.63;2.42;;;16.60;99.90;;;;;;4905603;29;20047;-75
2021/09/13 07:30:22;;;;;;;5.90;2.55;;;16.70;99.90;;;;;;4921021;29;20088;-74
2021/09/13 07:32:49;;;;;;;5.57;2.17;;;16.70;99.90;;;;;;4928820;29;20091;-75
2021/09/13 07:35:15;;;;;;;5.45;2.10;;;16.80;99.90;;;;;;4925007;29;20036;-75
2021/09/13 07:37:44;;;;;;;5.43;2.25;;;16.90;99.90;;;;;;4921320;29;20036;-75
2021/09/13 07:40:11;;;;;;;9.27;1.73;;;16.90;99.90;;;;;;4924555;29;20091;-80
2021/09/13 07:42:40;;;;;;;9.35;1.70;;;16.90;99.90;;;;;;4928507;29;20024;-76
2021/09/13 07:45:07;;;;;;;12.15;2.38;;;16.90;99.90;;;;;;4927114;29;20099;-76
2021/09/13 07:47:35;;;;;;;7.50;2.33;;;16.90;99.90;;;;;;4925616;29;20036;-77
2021/09/13 07:50:01;;;;;;;7.10;2.03;;;16.90;99.90;;;;;;4923821;29;20036;-76
2021/09/13 07:52:28;;;;;;;4.55;2.47;;;16.90;99.90;;;;;;4917067;29;20033;-78
2021/09/13 07:54:54;;;;;;;4.47;2.30;;;16.90;99.90;;;;;;4897183;29;20095;-78
2021/09/13 07:57:24;;;;;;;4.90;2.13;;;17.00;99.90;;;;;;4930987;29;20039;-77
2021/09/13 08:00:00;;;;;;;11.00;2.38;;;17.00;99.90;;;;;;4914327;29;20040;-76
2021/09/13 08:02:31;;;;;;;4.38;1.98;;;17.00;99.90;;;;;;4931563;29;20060;-77
2021/09/13 08:04:59;;;;;;;3.00;1.33;;;17.10;99.90;;;;;;4930094;29;20044;-75
2021/09/13 08:07:28;;;;;;;3.50;1.70;;;17.20;99.90;;;;;;4928762;29;20028;-77
2021/09/13 08:09:54;;;;;;;1.85;1.20;;;17.20;99.90;;;;;;4924177;29;20028;-76
2021/09/13 08:12:19;;;;;;;3.60;1.60;;;17.20;99.90;;;;;;4918030;29;20032;-76
2021/09/13 08:14:45;;;;;;;5.55;1.35;;;17.30;99.90;;;;;;4910213;29;20035;-78
2021/09/13 08:17:12;;;;;;;6.07;1.30;;;17.30;99.90;;;;;;4911658;29;20025;-75
2021/09/13 08:19:41;;;;;;;4.90;1.42;;;17.30;99.90;;;;;;4916171;29;20484;-76
2021/09/13 08:22:10;;;;;;;4.68;1.42;;;17.30;99.90;;;;;;4924431;29;20057;-76
2021/09/13 08:24:35;;;;;;;6.55;1.58;;;17.30;99.90;;;;;;4933928;29;20058;-77
2021/09/13 08:27:01;;;;;;;4.18;1.33;;;17.40;99.90;;;;;;4923819;29;20045;-75
2021/09/13 08:29:27;;;;;;;3.05;1.10;;;17.40;99.90;;;;;;4920543;29;20037;-76
2021/09/13 08:31:55;;;;;;;6.78;1.33;;;17.50;99.90;;;;;;4911558;29;20038;-74
2021/09/13 08:34:21;;;;;;;4.28;1.33;;;17.50;99.90;;;;;;4904277;29;20032;-74
2021/09/13 08:36:47;;;;;;;5.82;1.50;;;17.50;99.90;;;;;;4923087;29;20039;-77
2021/09/13 08:39:14;;;;;;;5.43;0.90;;;17.60;99.90;;;;;;4923598;29;20060;-74
2021/09/13 08:41:41;;;;;;;6.28;1.42;;;17.60;99.90;;;;;;4919043;29;20028;-74
2021/09/13 08:44:08;;;;;;;5.95;1.35;;;17.70;99.90;;;;;;4923224;29;20039;-74
2021/09/13 08:46:43;;;;;;;1.73;0.85;;;17.70;99.90;;;;;;4910605;29;20056;-76
2021/09/13 08:49:11;;;;;;;3.45;1.15;;;17.70;99.90;;;;;;4909495;29;20611;-76
2021/09/13 08:51:38;;;;;;;7.35;1.83;;;17.70;99.90;;;;;;4921541;29;20028;-74
2021/09/13 08:54:06;;;;;;;3.08;1.10;;;17.80;99.90;;;;;;4927877;29;20060;-77
2021/09/13 08:56:43;;;;;;;6.22;0.70;;;17.70;99.90;;;;;;4930035;29;20047;-75
2021/09/13 08:59:15;;;;;;;10.02;1.13;;;17.80;99.90;;;;;;4930207;29;20028;-74
2021/09/13 09:01:46;;;;;;;5.32;1.17;;;18.00;99.90;;;;;;4929327;29;20044;-75
2021/09/13 09:04:11;;;;;;;1.55;0.65;;;18.00;99.90;;;;;;4927200;29;20461;-76
2021/09/13 09:06:41;;;;;;;3.47;0.75;;;18.20;99.90;;;;;;4921264;29;20040;-74
2021/09/13 09:09:12;;;;;;;7.63;1.00;;;18.40;99.90;;;;;;4929573;29;20485;-75
2021/09/13 09:12:02;;;;;;;2.17;0.60;;;18.50;99.90;;;;;;4923194;29;20398;-74
2021/09/13 09:14:32;;;;;;;1.05;0.40;;;18.60;99.90;;;;;;4921903;29;20466;-75
2021/09/13 09:17:05;;;;;;;1.80;0.60;;;18.70;99.90;;;;;;4917510;29;20037;-75
2021/09/13 09:19:31;;;;;;;0.70;0.30;;;18.80;99.90;;;;;;4917702;29;20039;-74
2021/09/13 09:22:15;;;;;;;11.77;0.80;;;18.80;99.90;;;;;;4923678;29;20032;-77
2021/09/13 09:24:42;;;;;;;1.40;0.50;;;18.90;99.90;;;;;;4917406;29;20489;-77
2021/09/13 09:27:08;;;;;;;1.10;0.55;;;18.90;99.90;;;;;;4921190;29;20037;-76
2021/09/13 09:29:38;;;;;;;4.95;0.70;;;18.90;99.90;;;;;;4920072;29;20033;-75
2021/09/13 09:32:05;;;;;;;1.85;0.52;;;19.00;99.90;;;;;;4926036;29;20028;-74
2021/09/13 09:34:34;;;;;;;2.28;0.43;;;19.00;99.90;;;;;;4926763;29;20144;-74
2021/09/13 09:37:00;;;;;;;2.15;0.50;;;19.00;99.90;;;;;;4910010;29;20028;-75
2021/09/13 09:39:29;;;;;;;3.55;0.70;;;19.00;99.90;;;;;;4905978;29;20034;-73
2021/09/13 09:41:56;;;;;;;2.55;0.75;;;18.90;99.90;;;;;;4916627;29;20096;-74
2021/09/13 09:44:24;;;;;;;11.98;0.77;;;19.00;99.90;;;;;;4916121;29;20082;-74
2021/09/13 09:46:50;;;;;;;1.02;0.52;;;19.00;99.90;;;;;;4899159;29;20045;-76
2021/09/13 09:49:18;;;;;;;1.33;0.85;;;19.00;99.90;;;;;;4916293;29;20029;-74
2021/09/13 09:51:54;;;;;;;1.02;0.68;;;19.10;99.90;;;;;;4920285;29;20036;-76
2021/09/13 09:54:25;;;;;;;0.85;0.45;;;19.00;99.90;;;;;;4916642;29;20032;-74
2021/09/13 09:57:02;;;;;;;0.82;0.50;;;19.00;99.90;;;;;;4906442;29;20032;-75
2021/09/13 09:59:35;;;;;;;1.02;0.40;;;19.00;99.90;;;;;;4925329;29;20061;-78
2021/09/13 10:02:17;;;;;;;2.50;0.30;;;19.10;99.90;;;;;;4921369;29;20036;-78
2021/09/13 10:04:46;;;;;;;4.55;0.70;;;19.00;99.90;;;;;;4919725;29;20040;-77
2021/09/13 10:07:14;;;;;;;5.30;0.38;;;18.90;99.90;;;;;;4924786;29;20084;-77
2021/09/13 10:09:41;;;;;;;1.25;0.50;;;18.90;99.90;;;;;;4914306;29;20029;-75
2021/09/13 10:12:08;;;;;;;5.57;0.60;;;18.90;99.90;;;;;;4917789;29;20084;-76
2021/09/13 10:14:34;;;;;;;0.40;0.40;;;18.90;99.90;;;;;;4923825;29;20028;-77
2021/09/13 10:17:01;;;;;;;3.55;0.47;;;19.00;99.90;;;;;;4928235;29;20034;-74
2021/09/13 10:19:27;;;;;;;6.78;0.90;;;19.00;99.90;;;;;;4907001;29;20072;-75
2021/09/13 10:21:54;;;;;;;5.07;0.75;;;19.10;99.90;;;;;;4908817;29;20033;-75
2021/09/13 10:24:23;;;;;;;1.60;0.52;;;19.00;99.90;;;;;;4907601;29;20096;-75
2021/09/13 10:26:59;;;;;;;0.77;0.50;;;18.90;99.90;;;;;;4908770;29;20065;-74
2021/09/13 10:29:27;;;;;;;2.40;0.60;;;18.70;99.90;;;;;;4909081;29;20088;-78
2021/09/13 10:31:58;;;;;;;3.47;0.73;;;18.60;99.90;;;;;;4908955;29;20033;-74
2021/09/13 10:34:25;;;;;;;1.65;0.80;;;18.60;99.90;;;;;;4908827;29;20032;-76
2021/09/13 10:37:14;;;;;;;1.30;0.75;;;18.60;99.90;;;;;;4923870;29;20035;-76
2021/09/13 10:39:53;;;;;;;1.30;0.60;;;18.70;99.90;;;;;;4923348;29;20119;-76
2021/09/13 10:42:33;;;;;;;2.70;0.65;;;18.80;99.90;;;;;;4913162;29;20032;-76
2021/09/13 10:45:20;;;;;;;2.15;0.90;;;18.90;99.90;;;;;;4917335;29;20060;-77
2021/09/13 10:47:57;;;;;;;3.13;0.63;;;19.00;99.90;;;;;;4907105;29;20045;-78
2021/09/13 10:50:50;;;;;;;5.00;0.90;;;19.20;99.90;;;;;;4907675;29;20029;-76
2021/09/13 10:53:19;;;;;;;1.42;0.60;;;19.50;99.90;;;;;;4908710;29;20482;-79
2021/09/13 10:55:50;;;;;;;1.10;0.50;;;20.00;99.90;;;;;;4891414;29;20553;-77
2021/09/13 10:58:17;;;;;;;7.28;0.68;;;20.40;99.90;;;;;;4909321;29;20029;-76
2021/09/13 11:00:43;;;;;;;2.17;0.73;;;20.70;99.90;;;;;;4899431;29;20088;-77
2021/09/13 11:03:28;;;;;;;0.88;0.40;;;20.80;99.90;;;;;;4908201;29;20032;-76
2021/09/13 11:06:16;;;;;;;0.90;0.30;;;20.80;99.90;;;;;;4917547;29;20048;-76
2021/09/13 11:09:02;;;;;;;8.65;0.70;;;20.70;99.90;;;;;;4913920;29;20532;-77
2021/09/13 11:11:41;;;;;;;1.17;0.40;;;20.60;99.90;;;;;;4917400;29;20036;-77
2021/09/13 11:14:14;;;;;;;1.13;0.55;;;20.50;99.90;;;;;;4907635;29;21093;-75
2021/09/13 11:16:45;;;;;;;3.10;0.22;;;20.50;99.90;;;;;;4918078;29;20028;-78
2021/09/13 11:19:13;;;;;;;1.38;0.60;;;20.40;99.90;;;;;;4910619;29;20040;-77
2021/09/13 11:21:43;;;;;;;0.25;0.20;;;20.30;99.90;;;;;;4926080;29;20031;-78
2021/09/13 11:24:12;;;;;;;1.05;0.57;;;20.10;99.90;;;;;;4919234;29;20067;-75
2021/09/13 11:26:48;;;;;;;1.27;0.40;;;20.00;99.90;;;;;;4912255;29;20500;-76
2021/09/13 11:29:19;;;;;;;4.90;0.80;;;19.80;99.90;;;;;;4908365;29;20725;-75
2021/09/13 11:31:59;;;;;;;0.30;0.30;;;19.70;99.90;;;;;;4890447;29;20036;-77
2021/09/13 11:34:26;;;;;;;1.92;0.82;;;19.60;99.90;;;;;;4909070;29;20470;-76
2021/09/13 11:36:55;;;;;;;2.20;0.90;;;19.50;99.90;;;;;;4908480;29;20065;-75
2021/09/13 11:39:22;;;;;;;0.60;0.32;;;19.50;99.90;;;;;;4908795;29;20063;-75
2021/09/13 11:42:11;;;;;;;0.90;0.50;;;19.60;99.90;;;;;;4907848;29;20076;-76
2021/09/13 11:44:50;;;;;;;8.27;1.08;;;19.60;99.90;;;;;;4908276;29;20096;-76
2021/09/13 11:47:18;;;;;;;0.90;0.30;;;19.70;99.90;;;;;;4892063;29;20092;-76
2021/09/13 11:49:47;;;;;;;2.67;0.45;;;19.90;99.90;;;;;;4908817;29;20044;-76
2021/09/13 11:52:17;;;;;;;1.02;0.55;;;20.00;99.90;;;;;;4908544;29;20060;-76
2021/09/13 11:54:54;;;;;;;3.42;0.63;;;20.20;99.90;;;;;;4909055;29;20490;-77
2021/09/13 11:57:21;;;;;;;1.90;0.90;;;20.40;99.90;;;;;;4908414;29;20032;-76
2021/09/13 11:59:52;;;;;;;1.88;0.70;;;20.70;99.90;;;;;;4911935;29;20032;-77
2021/09/13 12:02:18;;;;;;;2.33;0.70;;;21.00;99.90;;;;;;4912306;29;20039;-77
2021/09/13 12:04:46;;;;;;;7.60;0.68;;;21.10;99.90;;;;;;4911919;29;20056;-77
2021/09/13 12:07:13;;;;;;;2.30;0.50;;;21.10;99.90;;;;;;4912166;29;20025;-80
2021/09/13 12:09:41;;;;;;;0.80;0.57;;;21.10;99.90;;;;;;4895022;29;20075;-77
2021/09/13 12:12:11;;;;;;;1.05;0.70;;;21.00;99.90;;;;;;4911950;29;20036;-78
2021/09/13 12:14:39;;;;;;;1.23;0.32;;;20.90;99.90;;;;;;4911997;29;20025;-77
2021/09/13 12:17:17;;;;;;;1.48;0.40;;;20.80;99.90;;;;;;4911739;29;20032;-80
2021/09/13 12:20:15;;;;;;;2.67;0.60;;;20.80;99.90;;;;;;4920744;29;20028;-79
2021/09/13 12:22:42;;;;;;;2.00;0.43;;;20.90;99.90;;;;;;4921885;29;20505;-79
2021/09/13 12:25:13;;;;;;;1.08;0.55;;;21.00;99.90;;;;;;4930415;29;20096;-79
2021/09/13 12:27:42;;;;;;;1.90;0.43;;;21.10;99.90;;;;;;4930584;29;20028;-80
2021/09/13 12:30:14;;;;;;;1.48;0.57;;;21.20;99.90;;;;;;4930563;29;20025;-77
2021/09/13 12:32:47;;;;;;;1.85;0.95;;;21.50;99.90;;;;;;4930657;29;20047;-78
2021/09/13 12:35:13;;;;;;;0.60;0.57;;;21.80;99.90;;;;;;4913563;29;20060;-77
2021/09/13 12:37:40;;;;;;;5.88;0.50;;;21.70;99.90;;;;;;4930665;29;20271;-79
2021/09/13 12:40:12;;;;;;;10.02;0.80;;;21.60;99.90;;;;;;4912687;29;20572;-77
2021/09/13 12:42:50;;;;;;;0.40;0.30;;;21.40;99.90;;;;;;4913630;29;20032;-78
2021/09/13 12:45:16;;;;;;;3.03;0.65;;;21.10;99.90;;;;;;4912709;29;20078;-78
2021/09/13 12:48:09;;;;;;;1.00;0.52;;;21.00;99.90;;;;;;4912934;29;20049;-78
2021/09/13 12:50:38;;;;;;;1.50;0.52;;;20.90;99.90;;;;;;4926515;29;20442;-78
2021/09/13 12:53:20;;;;;;;0.88;0.52;;;20.90;99.90;;;;;;4930014;29;20051;-79
2021/09/13 12:55:46;;;;;;;1.42;0.60;;;20.70;99.90;;;;;;4930255;29;20039;-81
2021/09/13 12:58:32;;;;;;;4.55;0.90;;;20.60;99.90;;;;;;4929088;29;20028;-78